ENXV weather

Varg Platform
Norway

Public forecast

Using degrees Celsius for public forecast. Weather courtesy of forecast.io.

Closest aviation weather report (METAR) to Varg Platform

Closest report is Sleipner A Platform, 17.4 nm (32.2 km) N. Retrieved 2020/06/04 14:50 UTC (16 minutes ago):

ENSL 041450Z AUTO 34019KT 9999NDV FEW020/// 10/04 Q0998 W09/S4

Closest aviation forecast (TAF) to Varg Platform

Closest forecast is Stavanger Airport Sola, 127.1 nm (235.3 km) ENE. Retrieved 2020/06/04 12:57 UTC (2 hours ago):

TAF ENZV 041100Z 0412/0512 34008KT 9999 -RA FEW012 BKN030 TEMPO 0412/0415 4000 RA BR BKN012 TEMPO 0421/0506 SHRA BKN014 FEW025CB BECMG 0422/0424 10012KT BECMG 0506/0508 15015G25KT